sensor_id;sensor_type;location;lat;lon;timestamp;P1;durP1;ratioP1;P2;durP2;ratioP2
42670;SDS011;28283;55.426;37.756;2023-06-10T00:01:33;7.15;;;5.07;;
42670;SDS011;28283;55.426;37.756;2023-06-10T00:06:36;5.22;;;4.28;;
42670;SDS011;28283;55.426;37.756;2023-06-10T00:11:37;5.30;;;3.97;;
42670;SDS011;28283;55.426;37.756;2023-06-10T00:16:39;4.28;;;3.80;;
42670;SDS011;28283;55.426;37.756;2023-06-10T00:21:39;4.40;;;3.92;;
42670;SDS011;28283;55.426;37.756;2023-06-10T00:26:40;9.23;;;3.67;;
42670;SDS011;28283;55.426;37.756;2023-06-10T00:36:42;4.65;;;4.18;;
42670;SDS011;28283;55.426;37.756;2023-06-10T00:41:43;7.72;;;3.55;;
42670;SDS011;28283;55.426;37.756;2023-06-10T00:46:44;5.13;;;3.22;;
42670;SDS011;28283;55.426;37.756;2023-06-10T00:51:44;3.33;;;3.03;;
42670;SDS011;28283;55.426;37.756;2023-06-10T00:56:45;3.87;;;3.37;;
42670;SDS011;28283;55.426;37.756;2023-06-10T01:01:47;6.00;;;5.40;;
42670;SDS011;28283;55.426;37.756;2023-06-10T01:17:59;4.00;;;2.70;;
42670;SDS011;28283;55.426;37.756;2023-06-10T01:33:10;3.60;;;2.50;;
42670;SDS011;28283;55.426;37.756;2023-06-10T01:38:14;3.05;;;1.70;;
42670;SDS011;28283;55.426;37.756;2023-06-10T01:43:15;2.55;;;1.58;;
42670;SDS011;28283;55.426;37.756;2023-06-10T01:48:16;3.72;;;1.30;;
42670;SDS011;28283;55.426;37.756;2023-06-10T01:53:17;3.50;;;1.38;;
42670;SDS011;28283;55.426;37.756;2023-06-10T01:58:17;1.98;;;1.70;;
42670;SDS011;28283;55.426;37.756;2023-06-10T02:03:18;2.40;;;1.93;;
42670;SDS011;28283;55.426;37.756;2023-06-10T02:08:19;4.95;;;1.65;;
42670;SDS011;28283;55.426;37.756;2023-06-10T02:13:19;2.63;;;1.95;;
42670;SDS011;28283;55.426;37.756;2023-06-10T02:18:20;3.92;;;2.10;;
42670;SDS011;28283;55.426;37.756;2023-06-10T02:23:22;1.80;;;1.33;;
42670;SDS011;28283;55.426;37.756;2023-06-10T02:28:22;5.00;;;2.03;;
42670;SDS011;28283;55.426;37.756;2023-06-10T02:33:25;4.15;;;1.70;;
42670;SDS011;28283;55.426;37.756;2023-06-10T02:38:25;2.53;;;1.65;;
42670;SDS011;28283;55.426;37.756;2023-06-10T02:43:26;14.50;;;2.00;;
42670;SDS011;28283;55.426;37.756;2023-06-10T02:48:27;6.40;;;2.40;;
42670;SDS011;28283;55.426;37.756;2023-06-10T02:53:28;9.38;;;2.88;;
42670;SDS011;28283;55.426;37.756;2023-06-10T02:58:28;3.80;;;1.80;;
42670;SDS011;28283;55.426;37.756;2023-06-10T03:03:29;3.50;;;1.80;;
42670;SDS011;28283;55.426;37.756;2023-06-10T03:13:31;4.27;;;2.30;;
42670;SDS011;28283;55.426;37.756;2023-06-10T03:23:32;1.88;;;1.35;;
42670;SDS011;28283;55.426;37.756;2023-06-10T03:28:33;2.03;;;1.60;;
42670;SDS011;28283;55.426;37.756;2023-06-10T03:33:34;2.57;;;1.27;;
42670;SDS011;28283;55.426;37.756;2023-06-10T03:38:36;3.17;;;1.38;;
42670;SDS011;28283;55.426;37.756;2023-06-10T03:43:37;2.23;;;1.57;;
42670;SDS011;28283;55.426;37.756;2023-06-10T03:48:40;3.05;;;1.17;;
42670;SDS011;28283;55.426;37.756;2023-06-10T03:53:41;3.97;;;1.67;;
42670;SDS011;28283;55.426;37.756;2023-06-10T03:58:42;3.77;;;1.50;;
42670;SDS011;28283;55.426;37.756;2023-06-10T04:03:42;2.63;;;1.25;;
42670;SDS011;28283;55.426;37.756;2023-06-10T04:08:44;1.25;;;1.05;;
42670;SDS011;28283;55.426;37.756;2023-06-10T04:13:45;9.37;;;1.20;;
42670;SDS011;28283;55.426;37.756;2023-06-10T04:18:45;2.40;;;1.10;;
42670;SDS011;28283;55.426;37.756;2023-06-10T04:23:46;2.47;;;0.90;;
42670;SDS011;28283;55.426;37.756;2023-06-10T04:28:46;5.30;;;1.60;;
42670;SDS011;28283;55.426;37.756;2023-06-10T04:33:47;2.92;;;1.08;;
42670;SDS011;28283;55.426;37.756;2023-06-10T04:38:48;2.60;;;1.10;;
42670;SDS011;28283;55.426;37.756;2023-06-10T04:43:49;2.23;;;0.90;;
42670;SDS011;28283;55.426;37.756;2023-06-10T04:48:49;6.60;;;1.27;;
42670;SDS011;28283;55.426;37.756;2023-06-10T04:53:50;5.40;;;1.13;;
42670;SDS011;28283;55.426;37.756;2023-06-10T04:58:51;1.80;;;0.85;;
42670;SDS011;28283;55.426;37.756;2023-06-10T05:03:52;2.05;;;0.68;;
42670;SDS011;28283;55.426;37.756;2023-06-10T05:08:52;1.27;;;0.77;;
42670;SDS011;28283;55.426;37.756;2023-06-10T05:13:53;1.53;;;0.90;;
42670;SDS011;28283;55.426;37.756;2023-06-10T05:18:53;3.00;;;0.90;;
42670;SDS011;28283;55.426;37.756;2023-06-10T05:23:54;2.55;;;0.70;;
42670;SDS011;28283;55.426;37.756;2023-06-10T05:28:55;0.95;;;0.85;;
42670;SDS011;28283;55.426;37.756;2023-06-10T05:33:56;3.08;;;0.70;;
42670;SDS011;28283;55.426;37.756;2023-06-10T05:43:58;1.73;;;0.65;;
42670;SDS011;28283;55.426;37.756;2023-06-10T05:48:58;2.63;;;0.70;;
42670;SDS011;28283;55.426;37.756;2023-06-10T05:53:59;1.70;;;0.85;;
42670;SDS011;28283;55.426;37.756;2023-06-10T05:59:00;1.80;;;1.00;;
42670;SDS011;28283;55.426;37.756;2023-06-10T06:04:00;3.70;;;0.88;;
42670;SDS011;28283;55.426;37.756;2023-06-10T06:09:01;2.95;;;0.73;;
42670;SDS011;28283;55.426;37.756;2023-06-10T06:14:02;1.80;;;0.70;;
42670;SDS011;28283;55.426;37.756;2023-06-10T06:19:03;3.03;;;1.10;;
42670;SDS011;28283;55.426;37.756;2023-06-10T06:24:04;1.95;;;0.73;;
42670;SDS011;28283;55.426;37.756;2023-06-10T06:29:04;2.00;;;0.85;;
42670;SDS011;28283;55.426;37.756;2023-06-10T06:34:05;1.77;;;0.83;;
42670;SDS011;28283;55.426;37.756;2023-06-10T06:39:06;1.27;;;0.60;;
42670;SDS011;28283;55.426;37.756;2023-06-10T06:44:07;6.03;;;0.73;;
42670;SDS011;28283;55.426;37.756;2023-06-10T06:49:07;1.52;;;0.65;;
42670;SDS011;28283;55.426;37.756;2023-06-10T06:54:08;1.60;;;0.80;;
42670;SDS011;28283;55.426;37.756;2023-06-10T06:59:08;3.60;;;0.90;;
42670;SDS011;28283;55.426;37.756;2023-06-10T07:04:10;3.38;;;0.90;;
42670;SDS011;28283;55.426;37.756;2023-06-10T07:09:10;2.97;;;0.90;;
42670;SDS011;28283;55.426;37.756;2023-06-10T07:19:11;2.10;;;1.20;;
42670;SDS011;28283;55.426;37.756;2023-06-10T07:24:12;4.63;;;0.87;;
42670;SDS011;28283;55.426;37.756;2023-06-10T07:29:13;3.72;;;1.02;;
42670;SDS011;28283;55.426;37.756;2023-06-10T07:34:13;3.85;;;1.30;;
42670;SDS011;28283;55.426;37.756;2023-06-10T07:39:15;2.05;;;1.10;;
42670;SDS011;28283;55.426;37.756;2023-06-10T07:44:15;1.75;;;0.77;;
42670;SDS011;28283;55.426;37.756;2023-06-10T07:49:16;0.95;;;0.93;;
42670;SDS011;28283;55.426;37.756;2023-06-10T07:54:17;4.72;;;1.83;;
42670;SDS011;28283;55.426;37.756;2023-06-10T07:59:17;4.03;;;1.77;;
42670;SDS011;28283;55.426;37.756;2023-06-10T08:04:18;2.85;;;0.70;;
42670;SDS011;28283;55.426;37.756;2023-06-10T08:09:19;1.67;;;0.85;;
42670;SDS011;28283;55.426;37.756;2023-06-10T08:14:21;5.82;;;0.68;;
42670;SDS011;28283;55.426;37.756;2023-06-10T08:19:22;1.50;;;0.70;;
42670;SDS011;28283;55.426;37.756;2023-06-10T08:29:23;5.20;;;0.50;;
42670;SDS011;28283;55.426;37.756;2023-06-10T08:34:24;1.27;;;0.75;;
42670;SDS011;28283;55.426;37.756;2023-06-10T08:39:24;2.53;;;0.85;;
42670;SDS011;28283;55.426;37.756;2023-06-10T08:44:27;3.20;;;0.40;;
42670;SDS011;28283;55.426;37.756;2023-06-10T08:49:29;1.52;;;0.40;;
42670;SDS011;28283;55.426;37.756;2023-06-10T08:54:34;1.77;;;0.50;;
42670;SDS011;28283;55.426;37.756;2023-06-10T08:59:38;3.42;;;0.30;;
42670;SDS011;28283;55.426;37.756;2023-06-10T09:04:40;4.20;;;0.60;;
42670;SDS011;28283;55.426;37.756;2023-06-10T09:09:44;3.50;;;0.50;;
42670;SDS011;28283;55.426;37.756;2023-06-10T09:14:45;2.35;;;0.30;;
42670;SDS011;28283;55.426;37.756;2023-06-10T09:19:46;4.55;;;0.50;;
42670;SDS011;28283;55.426;37.756;2023-06-10T09:24:46;2.58;;;0.68;;
42670;SDS011;28283;55.426;37.756;2023-06-10T09:29:51;3.65;;;0.40;;
42670;SDS011;28283;55.426;37.756;2023-06-10T09:34:55;1.30;;;0.30;;
42670;SDS011;28283;55.426;37.756;2023-06-10T09:40:03;2.78;;;0.93;;
42670;SDS011;28283;55.426;37.756;2023-06-10T09:45:05;1.35;;;0.60;;
42670;SDS011;28283;55.426;37.756;2023-06-10T09:50:07;5.65;;;0.47;;
42670;SDS011;28283;55.426;37.756;2023-06-10T09:55:08;4.55;;;0.68;;
42670;SDS011;28283;55.426;37.756;2023-06-10T10:00:13;0.50;;;0.40;;
42670;SDS011;28283;55.426;37.756;2023-06-10T10:05:18;4.15;;;0.60;;
42670;SDS011;28283;55.426;37.756;2023-06-10T10:10:23;4.72;;;0.50;;
42670;SDS011;28283;55.426;37.756;2023-06-10T10:20:26;0.30;;;0.30;;
42670;SDS011;28283;55.426;37.756;2023-06-10T10:25:32;0.40;;;0.40;;
42670;SDS011;28283;55.426;37.756;2023-06-10T10:30:46;3.28;;;0.50;;
42670;SDS011;28283;55.426;37.756;2023-06-10T10:35:50;6.95;;;0.60;;
42670;SDS011;28283;55.426;37.756;2023-06-10T10:40:52;3.08;;;0.40;;
42670;SDS011;28283;55.426;37.756;2023-06-10T10:46:03;4.45;;;0.60;;
42670;SDS011;28283;55.426;37.756;2023-06-10T10:51:11;1.90;;;0.40;;
42670;SDS011;28283;55.426;37.756;2023-06-10T11:01:13;5.90;;;0.40;;
42670;SDS011;28283;55.426;37.756;2023-06-10T11:06:15;3.05;;;0.40;;
42670;SDS011;28283;55.426;37.756;2023-06-10T11:11:26;3.13;;;0.50;;
42670;SDS011;28283;55.426;37.756;2023-06-10T11:16:42;3.67;;;0.38;;
42670;SDS011;28283;55.426;37.756;2023-06-10T11:21:59;4.60;;;0.70;;
42670;SDS011;28283;55.426;37.756;2023-06-10T11:27:14;0.40;;;0.32;;
42670;SDS011;28283;55.426;37.756;2023-06-10T11:32:18;2.78;;;1.13;;
42670;SDS011;28283;55.426;37.756;2023-06-10T11:42:21;5.57;;;0.82;;
42670;SDS011;28283;55.426;37.756;2023-06-10T11:47:22;4.40;;;0.57;;
42670;SDS011;28283;55.426;37.756;2023-06-10T11:57:26;0.50;;;0.50;;
42670;SDS011;28283;55.426;37.756;2023-06-10T12:07:28;4.10;;;0.70;;
42670;SDS011;28283;55.426;37.756;2023-06-10T12:22:40;0.55;;;0.30;;
42670;SDS011;28283;55.426;37.756;2023-06-10T12:27:52;4.55;;;1.00;;
42670;SDS011;28283;55.426;37.756;2023-06-10T12:32:53;1.40;;;0.70;;
42670;SDS011;28283;55.426;37.756;2023-06-10T12:43:01;1.08;;;0.30;;
42670;SDS011;28283;55.426;37.756;2023-06-10T12:53:06;5.07;;;0.68;;
42670;SDS011;28283;55.426;37.756;2023-06-10T13:03:08;4.87;;;0.80;;
42670;SDS011;28283;55.426;37.756;2023-06-10T13:08:09;2.50;;;0.40;;
42670;SDS011;28283;55.426;37.756;2023-06-10T13:18:11;1.03;;;0.70;;
42670;SDS011;28283;55.426;37.756;2023-06-10T13:28:12;6.20;;;0.63;;
42670;SDS011;28283;55.426;37.756;2023-06-10T13:33:12;3.72;;;0.52;;
42670;SDS011;28283;55.426;37.756;2023-06-10T13:38:13;6.25;;;0.80;;
42670;SDS011;28283;55.426;37.756;2023-06-10T13:43:14;6.72;;;0.70;;
42670;SDS011;28283;55.426;37.756;2023-06-10T13:48:15;0.57;;;0.50;;
42670;SDS011;28283;55.426;37.756;2023-06-10T13:58:16;1.92;;;0.85;;
42670;SDS011;28283;55.426;37.756;2023-06-10T14:08:17;1.92;;;0.60;;
42670;SDS011;28283;55.426;37.756;2023-06-10T14:13:18;3.33;;;0.50;;
42670;SDS011;28283;55.426;37.756;2023-06-10T14:23:19;2.90;;;0.60;;
42670;SDS011;28283;55.426;37.756;2023-06-10T14:33:21;2.55;;;0.50;;
42670;SDS011;28283;55.426;37.756;2023-06-10T14:43:22;1.23;;;0.57;;
42670;SDS011;28283;55.426;37.756;2023-06-10T14:53:22;5.53;;;0.80;;
42670;SDS011;28283;55.426;37.756;2023-06-10T15:03:23;2.50;;;0.50;;
42670;SDS011;28283;55.426;37.756;2023-06-10T15:13:24;6.43;;;0.70;;
42670;SDS011;28283;55.426;37.756;2023-06-10T15:18:25;2.05;;;1.50;;
42670;SDS011;28283;55.426;37.756;2023-06-10T15:23:25;5.70;;;0.50;;
42670;SDS011;28283;55.426;37.756;2023-06-10T15:28:26;2.75;;;0.60;;
42670;SDS011;28283;55.426;37.756;2023-06-10T15:38:27;1.80;;;0.60;;
42670;SDS011;28283;55.426;37.756;2023-06-10T15:43:28;6.35;;;1.08;;
42670;SDS011;28283;55.426;37.756;2023-06-10T15:48:28;4.78;;;1.00;;
42670;SDS011;28283;55.426;37.756;2023-06-10T15:53:29;3.30;;;1.02;;
42670;SDS011;28283;55.426;37.756;2023-06-10T15:58:29;6.47;;;0.90;;
42670;SDS011;28283;55.426;37.756;2023-06-10T16:03:30;10.77;;;1.15;;
42670;SDS011;28283;55.426;37.756;2023-06-10T16:08:31;1.70;;;0.97;;
42670;SDS011;28283;55.426;37.756;2023-06-10T16:13:32;3.38;;;1.45;;
42670;SDS011;28283;55.426;37.756;2023-06-10T16:18:32;2.22;;;1.55;;
42670;SDS011;28283;55.426;37.756;2023-06-10T16:23:33;4.57;;;2.20;;
42670;SDS011;28283;55.426;37.756;2023-06-10T16:28:33;4.90;;;2.08;;
42670;SDS011;28283;55.426;37.756;2023-06-10T16:33:34;1.90;;;1.35;;
42670;SDS011;28283;55.426;37.756;2023-06-10T16:38:36;3.88;;;1.40;;
42670;SDS011;28283;55.426;37.756;2023-06-10T16:43:37;2.72;;;1.15;;
42670;SDS011;28283;55.426;37.756;2023-06-10T16:53:38;2.50;;;1.30;;
42670;SDS011;28283;55.426;37.756;2023-06-10T17:03:39;1.88;;;0.85;;
42670;SDS011;28283;55.426;37.756;2023-06-10T17:13:40;3.92;;;0.90;;
42670;SDS011;28283;55.426;37.756;2023-06-10T17:18:41;1.80;;;1.30;;
42670;SDS011;28283;55.426;37.756;2023-06-10T17:23:42;2.47;;;0.90;;
42670;SDS011;28283;55.426;37.756;2023-06-10T17:28:42;3.53;;;1.58;;
42670;SDS011;28283;55.426;37.756;2023-06-10T17:33:43;5.90;;;1.20;;
42670;SDS011;28283;55.426;37.756;2023-06-10T17:38:43;13.07;;;1.70;;
42670;SDS011;28283;55.426;37.756;2023-06-10T17:43:45;6.53;;;1.52;;
42670;SDS011;28283;55.426;37.756;2023-06-10T17:48:46;8.63;;;1.95;;
42670;SDS011;28283;55.426;37.756;2023-06-10T17:53:47;3.65;;;0.95;;
42670;SDS011;28283;55.426;37.756;2023-06-10T17:58:48;7.03;;;1.27;;
42670;SDS011;28283;55.426;37.756;2023-06-10T18:03:49;2.63;;;1.60;;
42670;SDS011;28283;55.426;37.756;2023-06-10T18:08:49;5.95;;;1.77;;
42670;SDS011;28283;55.426;37.756;2023-06-10T18:13:50;5.97;;;1.92;;
42670;SDS011;28283;55.426;37.756;2023-06-10T18:18:51;6.07;;;1.67;;
42670;SDS011;28283;55.426;37.756;2023-06-10T18:23:52;3.22;;;1.63;;
42670;SDS011;28283;55.426;37.756;2023-06-10T18:28:53;5.22;;;1.30;;
42670;SDS011;28283;55.426;37.756;2023-06-10T18:33:54;5.68;;;1.92;;
42670;SDS011;28283;55.426;37.756;2023-06-10T18:38:55;4.30;;;0.82;;
42670;SDS011;28283;55.426;37.756;2023-06-10T18:43:56;2.80;;;1.20;;
42670;SDS011;28283;55.426;37.756;2023-06-10T18:48:59;8.07;;;1.10;;
42670;SDS011;28283;55.426;37.756;2023-06-10T18:54:00;6.63;;;1.23;;
42670;SDS011;28283;55.426;37.756;2023-06-10T18:59:02;4.63;;;1.58;;
42670;SDS011;28283;55.426;37.756;2023-06-10T19:04:02;3.43;;;1.33;;
42670;SDS011;28283;55.426;37.756;2023-06-10T19:09:03;1.80;;;1.15;;
42670;SDS011;28283;55.426;37.756;2023-06-10T19:14:04;3.90;;;1.23;;
42670;SDS011;28283;55.426;37.756;2023-06-10T19:19:04;4.45;;;1.70;;
42670;SDS011;28283;55.426;37.756;2023-06-10T19:24:06;4.03;;;1.65;;
42670;SDS011;28283;55.426;37.756;2023-06-10T19:29:06;2.97;;;1.80;;
42670;SDS011;28283;55.426;37.756;2023-06-10T19:34:07;5.17;;;1.90;;
42670;SDS011;28283;55.426;37.756;2023-06-10T19:39:07;4.30;;;2.07;;
42670;SDS011;28283;55.426;37.756;2023-06-10T19:44:09;7.78;;;2.03;;
42670;SDS011;28283;55.426;37.756;2023-06-10T19:49:11;4.45;;;2.05;;
42670;SDS011;28283;55.426;37.756;2023-06-10T19:54:11;10.73;;;1.70;;
42670;SDS011;28283;55.426;37.756;2023-06-10T19:59:12;7.63;;;2.10;;
42670;SDS011;28283;55.426;37.756;2023-06-10T20:09:13;3.70;;;1.27;;
42670;SDS011;28283;55.426;37.756;2023-06-10T20:14:14;9.55;;;2.47;;
42670;SDS011;28283;55.426;37.756;2023-06-10T20:19:15;5.60;;;1.53;;
42670;SDS011;28283;55.426;37.756;2023-06-10T20:24:15;6.40;;;1.85;;
42670;SDS011;28283;55.426;37.756;2023-06-10T20:29:17;10.87;;;1.43;;
42670;SDS011;28283;55.426;37.756;2023-06-10T20:34:17;6.80;;;1.50;;
42670;SDS011;28283;55.426;37.756;2023-06-10T20:39:18;4.15;;;2.08;;
42670;SDS011;28283;55.426;37.756;2023-06-10T20:44:19;4.00;;;1.80;;
42670;SDS011;28283;55.426;37.756;2023-06-10T20:49:19;4.07;;;1.70;;
42670;SDS011;28283;55.426;37.756;2023-06-10T20:54:20;2.73;;;1.47;;
42670;SDS011;28283;55.426;37.756;2023-06-10T20:59:20;3.20;;;1.57;;
42670;SDS011;28283;55.426;37.756;2023-06-10T21:04:21;5.20;;;1.63;;
42670;SDS011;28283;55.426;37.756;2023-06-10T21:09:22;1.97;;;1.23;;
42670;SDS011;28283;55.426;37.756;2023-06-10T21:14:22;7.10;;;1.50;;
42670;SDS011;28283;55.426;37.756;2023-06-10T21:19:23;4.50;;;2.37;;
42670;SDS011;28283;55.426;37.756;2023-06-10T21:24:23;4.33;;;1.63;;
42670;SDS011;28283;55.426;37.756;2023-06-10T21:29:24;5.67;;;1.80;;
42670;SDS011;28283;55.426;37.756;2023-06-10T21:34:24;2.27;;;1.40;;
42670;SDS011;28283;55.426;37.756;2023-06-10T21:39:25;4.00;;;1.50;;
42670;SDS011;28283;55.426;37.756;2023-06-10T21:44:25;3.43;;;1.90;;
42670;SDS011;28283;55.426;37.756;2023-06-10T21:49:26;4.43;;;1.50;;
42670;SDS011;28283;55.426;37.756;2023-06-10T21:54:27;5.37;;;1.50;;
42670;SDS011;28283;55.426;37.756;2023-06-10T21:59:27;5.87;;;1.57;;
42670;SDS011;28283;55.426;37.756;2023-06-10T22:04:28;2.27;;;1.87;;
42670;SDS011;28283;55.426;37.756;2023-06-10T22:09:29;6.80;;;1.53;;
42670;SDS011;28283;55.426;37.756;2023-06-10T22:14:29;3.03;;;2.50;;
42670;SDS011;28283;55.426;37.756;2023-06-10T22:19:30;4.35;;;2.90;;
42670;SDS011;28283;55.426;37.756;2023-06-10T22:24:30;8.07;;;3.10;;
42670;SDS011;28283;55.426;37.756;2023-06-10T22:29:31;8.10;;;3.90;;
42670;SDS011;28283;55.426;37.756;2023-06-10T22:34:32;10.67;;;5.40;;
42670;SDS011;28283;55.426;37.756;2023-06-10T22:39:32;8.93;;;4.95;;
42670;SDS011;28283;55.426;37.756;2023-06-10T22:44:33;8.20;;;5.83;;
42670;SDS011;28283;55.426;37.756;2023-06-10T22:49:35;12.95;;;7.57;;
42670;SDS011;28283;55.426;37.756;2023-06-10T22:54:36;12.20;;;7.20;;
42670;SDS011;28283;55.426;37.756;2023-06-10T22:59:37;9.75;;;6.93;;
42670;SDS011;28283;55.426;37.756;2023-06-10T23:04:38;12.83;;;8.27;;
42670;SDS011;28283;55.426;37.756;2023-06-10T23:09:38;12.13;;;8.73;;
42670;SDS011;28283;55.426;37.756;2023-06-10T23:14:39;11.07;;;8.82;;
42670;SDS011;28283;55.426;37.756;2023-06-10T23:19:40;11.70;;;9.13;;
42670;SDS011;28283;55.426;37.756;2023-06-10T23:24:42;13.40;;;8.50;;
42670;SDS011;28283;55.426;37.756;2023-06-10T23:29:44;10.45;;;7.97;;
42670;SDS011;28283;55.426;37.756;2023-06-10T23:34:45;11.95;;;7.20;;
42670;SDS011;28283;55.426;37.756;2023-06-10T23:39:45;10.17;;;6.33;;
42670;SDS011;28283;55.426;37.756;2023-06-10T23:44:48;7.40;;;5.10;;
42670;SDS011;28283;55.426;37.756;2023-06-10T23:49:48;5.50;;;4.97;;
42670;SDS011;28283;55.426;37.756;2023-06-10T23:54:49;7.43;;;4.37;;
42670;SDS011;28283;55.426;37.756;2023-06-10T23:59:49;7.40;;;3.60;;
